Latest Coastal Weather Observations for Nullarbor

IDS60701

Issued at 1:31 pm CST Tuesday 28 June 2022 (issued every 10 minutes, with the page automatically refreshed every 10 minutes)

About coastal observations | Map of coastal stations | Coastal observations for SA | Marine services | Other Formats
Station Details ID: 018106 Name: NULLARBOR Lat: -31.45 Lon: 130.90 Height: 64.0 m
Data from the previous 72 hours. | See also: Recent months at Nullarbor
Date/Time
CST
Wind Sea
Height
m
Swell Vis
km
Cloud Weather Temp
°C
Press
MSL
hPa
Rain since
9am
mm
Dir  Spd
kts
Gust
kts
Height
m
Period
s
Dir
28/01:00pm NW 12 17 - - - - 10 - - 19.2 1025.3 0.0
28/12:30pm NW 13 17 - - - - 10 - - 18.2 1025.9 0.0
28/12:00pm NNW 12 17 - - - - 10 - - 17.2 1026.4 0.0
28/11:30am NNW 15 19 - - - - 10 - - 16.1 1026.8 0.0
28/11:00am NNW 17 21 - - - - 10 - - 14.8 1027.1 0.0
28/10:30am NNW 15 20 - - - - 10 - - 13.4 1027.5 0.0
28/10:00am NNW 15 20 - - - - 10 - - 11.5 1027.4 0.0
28/09:30am NNW 11 14 - - - - 10 - - 9.3 1027.8 0.0
28/09:00am N 10 13 - - - - 10 - - 7.2 1027.9 0.2
28/08:30am N 7 8 - - - - 10 - - 4.5 1027.8 0.2
28/08:00am N 7 8 - - - - 10 - - 3.3 1027.7 0.2
28/07:30am NNW 8 9 - - - - 10 - - 3.6 1027.5 0.2
28/07:00am N 10 13 - - - - 10 - - 4.9 1027.4 0.2
28/06:30am N 11 14 - - - - 10 - - 5.0 1027.2 0.2
28/06:00am N 9 12 - - - - 10 - - 5.6 1027.3 0.2
28/05:30am N 10 12 - - - - 10 - - 5.4 1027.2 0.2
28/05:00am N 11 13 - - - - 10 - - 5.0 1027.1 0.2
28/04:30am N 9 10 - - - - 10 - - 4.6 1027.3 0.2
28/04:00am N 9 10 - - - - 10 - - 5.0 1027.3 0.2
28/03:30am N 8 10 - - - - 10 - - 4.9 1027.2 0.2
28/03:00am N 8 9 - - - - 10 - - 4.9 1027.4 0.2
28/02:30am N 8 9 - - - - 10 - - 5.5 1027.7 0.2
28/02:00am N 9 11 - - - - 10 - - 5.6 1027.8 0.2
28/01:30am N 9 10 - - - - 10 - - 5.7 1028.0 0.2
28/01:00am NNE 8 9 - - - - 10 - - 5.7 1028.1 0.2
28/12:30am NNE 8 9 - - - - 10 - - 6.1 1028.4 0.2
28/12:00am NNE 9 9 - - - - 10 - - 6.7 1028.4 0.2
 
Date/Time
CST
Wind Sea
Height
m
Swell Vis
km
Cloud Weather Temp
°C
Press
MSL
hPa
Rain since
9am
mm
Dir  Spd
kts
Gust
kts
Height
m
Period
s
Dir
27/11:30pm NE 8 9 - - - - 10 - - 7.5 1028.7 0.2
27/11:00pm ENE 8 9 - - - - 10 - - 7.4 1029.0 0.2
27/10:30pm E 7 8 - - - - 10 - - 8.1 1029.3 0.2
27/10:00pm E 8 9 - - - - 10 - - 9.2 1029.4 0.2
27/09:30pm ENE 9 10 - - - - 10 - - 9.7 1029.6 0.2
27/09:00pm E 8 9 - - - - 10 - - 9.7 1029.7 0.2
27/08:30pm E 8 9 - - - - 10 - - 10.5 1029.7 0.2
27/08:00pm ENE 7 8 - - - - 10 - - 10.7 1029.6 0.2
27/07:30pm ENE 8 9 - - - - 10 - - 11.5 1029.4 0.2
27/07:00pm E 8 9 - - - - 10 - - 12.0 1029.3 0.2
27/06:30pm E 8 9 - - - - 10 - - 13.0 1029.2 0.2
27/06:00pm NE 6 7 - - - - 10 - - 14.4 1029.1 0.2
27/05:30pm NNE 6 8 - - - - 10 - - 17.3 1029.2 0.2
27/05:00pm N 7 9 - - - - 10 - - 18.5 1029.2 0.2
27/04:30pm N 9 12 - - - - 10 - - 18.9 1029.4 0.2
27/04:00pm N 9 13 - - - - 10 - - 19.2 1029.5 0.2
27/03:30pm NNE 8 13 - - - - 10 - - 19.5 1029.6 0.2
27/03:00pm N 8 13 - - - - 10 - - 18.9 1030.1 0.0
27/02:30pm N 7 14 - - - - 10 - - 19.1 1030.5 0.0
27/02:00pm NNE 8 12 - - - - 10 - - 18.8 1031.0 0.0
27/01:30pm N 10 13 - - - - 10 - - 18.4 1031.3 0.0
27/01:00pm N 11 13 - - - - 10 - - 17.9 1031.8 0.0
27/12:30pm NNE 11 13 - - - - 10 - - 17.6 1032.6 0.0
27/12:00pm NNE 11 14 - - - - 10 - - 16.0 1033.3 0.0
27/11:30am NNE 13 16 - - - - 10 - - 15.6 1033.7 0.0
27/11:00am NNE 10 14 - - - - 10 - - 14.0 1034.1 0.0
27/10:30am NE 11 13 - - - - 10 - - 12.6 1034.3 0.0
27/10:00am NE 8 11 - - - - 10 - - 11.4 1034.5 0.0
27/09:30am NE 7 9 - - - - 10 - - 9.7 1034.5 0.0
27/09:22am NE 7 8 - - - - 10 Partly cloudy - 8.9 1034.4 0.0
27/09:21am NE 7 8 - - - - 10 Partly cloudy - 8.9 1034.4 0.0
27/09:00am NE 6 8 - - - - 2 Mostly cloudy - 7.4 1034.3 0.0
27/08:30am NE 6 7 - - - - 1 Cloudy - 6.0 1034.4 0.0
27/08:11am NE 8 8 - - - - 0.6 Partly cloudy - 4.3 1034.2 0.0
27/08:00am NE 8 9 - - - - 1 Partly cloudy - 3.4 1034.1 0.0
27/07:30am NE 8 9 - - - - 1 - - 4.0 1033.7 0.0
27/07:00am NE 8 9 - - - - 2 - - 3.9 1033.5 0.0
27/06:40am NE 7 8 - - - - 7 - - 4.5 1033.3 0.0
27/06:30am NE 7 8 - - - - 10 - - 4.9 1033.2 0.0
27/06:00am NE 8 9 - - - - 10 - - 5.7 1032.9 0.0
27/05:30am NE 9 9 - - - - 10 - - 5.6 1032.8 0.0
27/05:00am NE 8 10 - - - - 10 - - 5.2 1032.9 0.0
27/04:30am NE 9 10 - - - - 10 - - 5.9 1033.1 0.0
27/04:00am NE 8 9 - - - - 10 - - 6.7 1033.3 0.0
27/03:30am NE 8 9 - - - - 10 - - 7.3 1033.4 0.0
27/03:00am NE 9 10 - - - - 10 - - 7.2 1033.4 0.0
27/02:30am NE 9 10 - - - - 10 - - 7.2 1033.5 0.0
27/02:00am NE 9 9 - - - - 10 - - 7.0 1033.6 0.0
27/01:30am NE 9 10 - - - - 10 - - 7.1 1033.4 0.0
27/01:00am NE 8 9 - - - - 10 - - 5.9 1033.7 0.0
27/12:30am ENE 9 9 - - - - 10 - - 6.6 1033.6 0.0
27/12:00am NE 7 9 - - - - 9 - - 6.7 1033.7 0.0
 
Date/Time
CST
Wind Sea
Height
m
Swell Vis
km
Cloud Weather Temp
°C
Press
MSL
hPa
Rain since
9am
mm
Dir  Spd
kts
Gust
kts
Height
m
Period
s
Dir
26/11:30pm NE 7 8 - - - - 9 - - 6.6 1033.6 0.0
26/11:00pm NE 8 9 - - - - 10 - - 7.0 1033.6 0.0
26/10:30pm ENE 7 7 - - - - 10 - - 7.1 1033.5 0.0
26/10:00pm ESE 6 6 - - - - 10 - - 8.5 1033.5 0.0
26/09:30pm SE 6 7 - - - - 10 - - 9.1 1033.3 0.0
26/09:00pm ESE 6 7 - - - - 10 - - 9.4 1033.1 0.0
26/08:30pm ESE 6 7 - - - - 10 - - 9.8 1032.8 0.0
26/08:00pm ESE 7 7 - - - - 10 - - 10.2 1032.7 0.0
26/07:30pm SE 7 8 - - - - 10 - - 10.6 1032.7 0.0
26/07:00pm SE 8 9 - - - - 10 - - 11.1 1032.5 0.0
26/06:30pm SE 7 8 - - - - 10 - - 12.0 1032.1 0.0
26/06:00pm SE 7 8 - - - - 10 - - 13.4 1031.7 0.0
26/05:30pm SE 10 14 - - - - 10 Partly cloudy - 15.1 1031.6 0.0
26/05:00pm SE 9 12 - - - - 10 Partly cloudy - 15.9 1031.4 0.0
26/04:30pm SSE 11 13 - - - - 10 Partly cloudy - 16.2 1031.1 0.0
26/04:00pm SE 11 14 - - - - 10 Partly cloudy - 16.2 1030.8 0.0
26/03:30pm SE 9 12 - - - - 10 Partly cloudy - 17.2 1030.7 0.0
26/03:00pm SE 8 10 - - - - 10 Partly cloudy - 16.6 1030.7 0.0
26/02:30pm SSE 9 16 - - - - 10 Partly cloudy - 17.0 1030.6 0.0
26/02:00pm SSE 8 11 - - - - 10 Partly cloudy - 17.4 1030.8 0.0
26/01:30pm SE 8 11 - - - - 10 Partly cloudy - 17.0 1031.1 0.0
26/01:00pm SSW 9 12 - - - - 10 Partly cloudy - 16.6 1031.4 0.0
26/12:30pm S 5 7 - - - - 10 Partly cloudy - 15.9 1031.8 0.0
26/12:00pm ESE 6 8 - - - - 10 Cloudy - 15.5 1032.0 0.0
26/11:30am S 6 9 - - - - 10 Partly cloudy - 16.3 1032.1 0.0
26/11:00am SW 5 8 - - - - 10 Partly cloudy - 15.7 1032.4 0.0
26/10:30am SW 5 8 - - - - 10 Partly cloudy - 14.1 1032.3 0.0
26/10:00am WNW 4 5 - - - - 10 Partly cloudy - 13.2 1032.0 0.0
26/09:30am WNW 5 6 - - - - 10 - - 10.8 1031.9 0.0
26/09:00am WNW 5 6 - - - - 10 - - 8.6 1031.3 0.2
26/08:30am NW 6 7 - - - - 10 - - 6.7 1030.9 0.2
26/08:00am NW 6 7 - - - - 10 Partly cloudy - 6.1 1030.5 0.2
26/07:30am NW 6 7 - - - - 10 - - 5.7 1030.2 0.2
26/07:00am WNW 6 7 - - - - 10 Partly cloudy - 6.3 1030.1 0.2
26/06:30am W 6 7 - - - - 10 - - 6.1 1029.7 0.2
26/06:00am WSW 4 5 - - - - 10 Mostly clear - 6.3 1029.4 0.2
26/05:30am W 7 8 - - - - 10 Partly cloudy - 6.9 1029.2 0.2
26/05:00am W 7 8 - - - - 9 - - 6.5 1029.0 0.2
26/04:30am W 6 7 - - - - 10 - - 6.7 1028.8 0.2
26/04:00am WNW 5 6 - - - - 10 - - 7.3 1028.5 0.2
26/03:30am WNW 6 6 - - - - 10 Partly cloudy - 7.8 1028.4 0.2
26/03:00am WNW 5 5 - - - - 10 - - 7.5 1028.6 0.2
26/02:30am W 6 6 - - - - 10 - - 8.1 1028.7 0.2
26/02:00am W 6 7 - - - - 10 - - 8.5 1028.7 0.2
26/01:30am W 7 7 - - - - 10 Cloudy - 9.3 1028.7 0.2
26/01:00am W 6 7 - - - - 10 Partly cloudy - 10.0 1028.8 0.2
26/12:30am W 5 6 - - - - 10 Cloudy - 9.8 1028.9 0.2
26/12:00am W 5 6 - - - - 10 Mostly cloudy - 10.0 1028.9 0.2
 
Date/Time
CST
Wind Sea
Height
m
Swell Vis
km
Cloud Weather Temp
°C
Press
MSL
hPa
Rain since
9am
mm
Dir  Spd
kts
Gust
kts
Height
m
Period
s
Dir
25/11:30pm WSW 4 5 - - - - 10 Cloudy - 10.3 1028.9 0.2
25/11:00pm WSW 5 5 - - - - 10 Cloudy - 10.8 1028.8 0.2
25/10:30pm WSW 5 6 - - - - 10 Cloudy - 11.2 1028.8 0.2
25/10:00pm SW 6 7 - - - - 10 Partly cloudy - 11.2 1028.5 0.2
25/09:30pm WSW 8 9 - - - - 10 Partly cloudy - 10.7 1028.3 0.2
25/09:00pm WSW 6 7 - - - - 10 Partly cloudy - 10.6 1028.0 0.2
25/08:30pm WSW 5 7 - - - - 10 - - 10.8 1027.7 0.2
25/08:00pm WSW 6 7 - - - - 10 - - 11.6 1027.3 0.2
25/07:30pm SW 6 7 - - - - 10 - - 12.1 1027.1 0.2
25/07:00pm SW 5 5 - - - - 10 - - 12.8 1026.8 0.2
25/06:30pm SSW 4 6 - - - - 10 Partly cloudy - 13.5 1026.5 0.2
25/06:00pm SW 4 6 - - - - 10 Partly cloudy - 14.2 1026.4 0.2
25/05:30pm SW 6 8 - - - - 10 Cloudy - 15.2 1025.9 0.2
25/05:00pm SW 9 12 - - - - 10 Cloudy - 15.7 1025.7 0.2
25/04:30pm SW 7 10 - - - - 10 Cloudy - 16.0 1025.4 0.2
25/04:00pm SW 5 8 - - - - 10 Partly cloudy - 16.3 1025.1 0.2
25/03:30pm SSW 8 12 - - - - 10 Cloudy - 15.9 1025.1 0.2
25/03:00pm S 11 15 - - - - 10 Cloudy - 16.7 1025.0 0.2
25/02:30pm SSW 11 15 - - - - 10 Cloudy - 16.9 1025.1 0.2
25/02:00pm SW 3 8 - - - - 10 Partly cloudy - 16.8 1025.2 0.2

Other formats

Comma delimited format used in spreadsheet applications
http://www.bom.gov.au/fwo/IDS60701/IDS60701.94651.axf

JavaScript Object Notation format (JSON) in row-major order
http://www.bom.gov.au/fwo/IDS60701/IDS60701.94651.json

Data quality

Most of these data are generated automatically and are frequently updated. Quality checks on data are not normally performed. It is possible for incorrect values to appear. Refer to information at About Latest Weather Observations and please check the disclaimer before using these data.